Terminal Aerodrome Forecast
Issued by NWS Glasgow, MT

Home | Current Version | Previous Version | Text Only | Print | Product List | Glossary On
Versions: 1 2 3 4 5 6 7 8 9 10 11 12 13
000
FTUS45 KGGW 310527
TAFGGW
TAF
KGGW 310527Z 3106/0106 29011KT P6SM VCSH BKN035
     FM310900 31013KT P6SM -SHRA OVC015
     FM311800 34016G24KT P6SM VCSH BKN035
     FM010000 33014KT P6SM SCT050
     FM010300 33007KT P6SM SCT090=

USA.gov is the U.S. government's official web portal to all federal, state and local government web resources and services.